Griffin, Indiana
Current Conditions -  °F | °C
As of 5:15 PM on Wednesday 22 Oct 2014 (Local Time) from KCUL Reporting Station
Clear Clear  
Wind Chill: 16°   Ceiling: Unl
Heat Index: 16°   Visibility: 10mi
Dew Point:   Wind: 5mph
Humidity: 48%   Direction: 40°NE
Pressure: 30.24"   Gusts: NA
Location:  38.2°N, 87.91°W
Report Text: KCUL 222215Z AUTO 04004KT 10SM CLR 17/06 A3024 RMK AO2 T01650055
Loading
Personal Weather Stations






























Interactive Weather Map
Tropical Storm Tracking
New forecast layout! Learn more

10-Day Weather Forecast

Advertisements
Track Severe Weather on mobile